sensor_id;sensor_type;location;lat;lon;timestamp;pressure;altitude;pressure_sealevel;temperature;humidity
62333;BME280;48624;49.812;8.562;2022-07-12T00:02:15;101307.44;;;16.48;73.94
62333;BME280;48624;49.812;8.562;2022-07-12T00:04:40;101301.50;;;16.44;74.03
62333;BME280;48624;49.812;8.562;2022-07-12T00:07:05;101306.22;;;16.41;74.29
62333;BME280;48624;49.812;8.562;2022-07-12T00:09:32;101306.47;;;16.49;73.82
62333;BME280;48624;49.812;8.562;2022-07-12T00:11:57;101301.13;;;16.38;74.93
62333;BME280;48624;49.812;8.562;2022-07-12T00:14:24;101300.75;;;16.19;75.59
62333;BME280;48624;49.812;8.562;2022-07-12T00:16:49;101300.88;;;15.82;78.58
62333;BME280;48624;49.812;8.562;2022-07-12T00:19:14;101301.78;;;15.47;79.97
62333;BME280;48624;49.812;8.562;2022-07-12T00:21:40;101301.50;;;15.38;80.86
62333;BME280;48624;49.812;8.562;2022-07-12T00:24:05;101307.28;;;15.32;81.16
62333;BME280;48624;49.812;8.562;2022-07-12T00:26:30;101315.34;;;15.44;80.87
62333;BME280;48624;49.812;8.562;2022-07-12T00:28:56;101314.31;;;15.58;80.19
62333;BME280;48624;49.812;8.562;2022-07-12T00:31:22;101310.72;;;15.46;80.99
62333;BME280;48624;49.812;8.562;2022-07-12T00:33:47;101312.34;;;15.60;79.15
62333;BME280;48624;49.812;8.562;2022-07-12T00:36:13;101312.34;;;15.60;79.47
62333;BME280;48624;49.812;8.562;2022-07-12T00:38:38;101297.22;;;15.72;78.40
62333;BME280;48624;49.812;8.562;2022-07-12T00:41:04;101311.50;;;15.48;80.58
62333;BME280;48624;49.812;8.562;2022-07-12T00:43:30;101306.66;;;15.64;78.95
62333;BME280;48624;49.812;8.562;2022-07-12T00:45:56;101298.31;;;15.69;78.34
62333;BME280;48624;49.812;8.562;2022-07-12T00:48:22;101289.25;;;15.47;80.16
62333;BME280;48624;49.812;8.562;2022-07-12T00:50:48;101293.50;;;15.38;80.93
62333;BME280;48624;49.812;8.562;2022-07-12T00:53:14;101296.22;;;15.25;81.59
62333;BME280;48624;49.812;8.562;2022-07-12T00:55:41;101293.94;;;15.32;80.89
62333;BME280;48624;49.812;8.562;2022-07-12T00:58:07;101288.16;;;15.38;80.16
62333;BME280;48624;49.812;8.562;2022-07-12T01:00:32;101286.22;;;15.40;80.08
62333;BME280;48624;49.812;8.562;2022-07-12T01:03:01;101283.53;;;15.40;79.86
62333;BME280;48624;49.812;8.562;2022-07-12T01:05:27;101283.00;;;15.35;80.28
62333;BME280;48624;49.812;8.562;2022-07-12T01:07:53;101288.88;;;15.40;79.58
62333;BME280;48624;49.812;8.562;2022-07-12T01:10:19;101283.28;;;15.44;79.27
62333;BME280;48624;49.812;8.562;2022-07-12T01:12:44;101289.31;;;15.34;80.65
62333;BME280;48624;49.812;8.562;2022-07-12T01:15:10;101288.69;;;15.31;80.55
62333;BME280;48624;49.812;8.562;2022-07-12T01:17:35;101293.66;;;15.24;81.20
62333;BME280;48624;49.812;8.562;2022-07-12T01:20:04;101289.72;;;15.17;82.13
62333;BME280;48624;49.812;8.562;2022-07-12T01:22:33;101293.16;;;15.19;81.80
62333;BME280;48624;49.812;8.562;2022-07-12T01:25:00;101294.03;;;15.06;82.72
62333;BME280;48624;49.812;8.562;2022-07-12T01:27:26;101294.47;;;15.13;82.25
62333;BME280;48624;49.812;8.562;2022-07-12T01:29:51;101288.03;;;14.91;83.50
62333;BME280;48624;49.812;8.562;2022-07-12T01:32:17;101297.53;;;14.95;83.28
62333;BME280;48624;49.812;8.562;2022-07-12T01:34:53;101299.31;;;14.95;83.40
62333;BME280;48624;49.812;8.562;2022-07-12T01:37:19;101295.16;;;15.04;82.27
62333;BME280;48624;49.812;8.562;2022-07-12T01:39:46;101288.56;;;15.21;81.05
62333;BME280;48624;49.812;8.562;2022-07-12T01:42:12;101291.31;;;15.19;80.93
62333;BME280;48624;49.812;8.562;2022-07-12T01:44:38;101287.13;;;15.28;80.38
62333;BME280;48624;49.812;8.562;2022-07-12T01:47:03;101295.34;;;15.25;80.31
62333;BME280;48624;49.812;8.562;2022-07-12T01:49:29;101296.66;;;15.19;80.78
62333;BME280;48624;49.812;8.562;2022-07-12T01:51:55;101301.03;;;15.20;80.73
62333;BME280;48624;49.812;8.562;2022-07-12T01:54:20;101294.66;;;15.10;81.71
62333;BME280;48624;49.812;8.562;2022-07-12T01:56:46;101291.03;;;14.87;83.46
62333;BME280;48624;49.812;8.562;2022-07-12T01:59:11;101295.97;;;14.80;84.12
62333;BME280;48624;49.812;8.562;2022-07-12T02:01:37;101290.25;;;14.97;82.08
62333;BME280;48624;49.812;8.562;2022-07-12T02:04:04;101295.97;;;14.80;83.91
62333;BME280;48624;49.812;8.562;2022-07-12T02:06:29;101294.84;;;14.95;82.06
62333;BME280;48624;49.812;8.562;2022-07-12T02:08:55;101286.03;;;14.82;82.85
62333;BME280;48624;49.812;8.562;2022-07-12T02:11:20;101286.50;;;14.50;85.73
62333;BME280;48624;49.812;8.562;2022-07-12T02:13:46;101288.69;;;14.69;83.79
62333;BME280;48624;49.812;8.562;2022-07-12T02:16:11;101286.88;;;14.82;82.30
62333;BME280;48624;49.812;8.562;2022-07-12T02:18:36;101284.97;;;14.71;83.37
62333;BME280;48624;49.812;8.562;2022-07-12T02:21:02;101291.88;;;14.87;82.01
62333;BME280;48624;49.812;8.562;2022-07-12T02:23:27;101288.34;;;14.87;82.01
62333;BME280;48624;49.812;8.562;2022-07-12T02:25:53;101282.13;;;14.62;84.78
62333;BME280;48624;49.812;8.562;2022-07-12T02:28:18;101285.63;;;14.75;83.14
62333;BME280;48624;49.812;8.562;2022-07-12T02:30:43;101292.66;;;14.63;84.71
62333;BME280;48624;49.812;8.562;2022-07-12T02:33:09;101296.28;;;14.75;83.00
62333;BME280;48624;49.812;8.562;2022-07-12T02:35:34;101295.31;;;14.76;82.75
62333;BME280;48624;49.812;8.562;2022-07-12T02:37:59;101296.38;;;14.74;82.67
62333;BME280;48624;49.812;8.562;2022-07-12T02:40:25;101296.38;;;14.74;82.44
62333;BME280;48624;49.812;8.562;2022-07-12T02:43:09;101304.28;;;14.75;82.26
62333;BME280;48624;49.812;8.562;2022-07-12T02:45:34;101309.06;;;14.70;83.01
62333;BME280;48624;49.812;8.562;2022-07-12T02:47:59;101309.72;;;14.74;82.55
62333;BME280;48624;49.812;8.562;2022-07-12T02:50:24;101301.06;;;14.70;82.62
62333;BME280;48624;49.812;8.562;2022-07-12T02:52:50;101303.63;;;14.71;82.34
62333;BME280;48624;49.812;8.562;2022-07-12T02:55:15;101297.66;;;14.68;82.60
62333;BME280;48624;49.812;8.562;2022-07-12T02:57:41;101316.78;;;14.62;82.99
62333;BME280;48624;49.812;8.562;2022-07-12T03:00:06;101313.16;;;14.50;83.86
62333;BME280;48624;49.812;8.562;2022-07-12T03:02:32;101316.88;;;14.60;82.81
62333;BME280;48624;49.812;8.562;2022-07-12T03:04:58;101320.28;;;14.62;82.83
62333;BME280;48624;49.812;8.562;2022-07-12T03:07:23;101323.09;;;14.61;82.93
62333;BME280;48624;49.812;8.562;2022-07-12T03:09:48;101318.34;;;14.64;82.84
62333;BME280;48624;49.812;8.562;2022-07-12T03:12:13;101326.91;;;14.56;83.42
62333;BME280;48624;49.812;8.562;2022-07-12T03:14:39;101317.75;;;14.61;83.06
62333;BME280;48624;49.812;8.562;2022-07-12T03:17:04;101324.88;;;14.60;83.40
62333;BME280;48624;49.812;8.562;2022-07-12T03:19:29;101323.50;;;14.54;83.71
62333;BME280;48624;49.812;8.562;2022-07-12T03:21:55;101333.94;;;14.57;83.20
62333;BME280;48624;49.812;8.562;2022-07-12T03:24:20;101327.38;;;14.37;84.61
62333;BME280;48624;49.812;8.562;2022-07-12T03:26:45;101334.72;;;14.47;83.87
62333;BME280;48624;49.812;8.562;2022-07-12T03:29:11;101327.16;;;14.27;85.32
62333;BME280;48624;49.812;8.562;2022-07-12T03:31:36;101331.75;;;14.25;85.73
62333;BME280;48624;49.812;8.562;2022-07-12T03:34:02;101334.09;;;14.30;85.28
62333;BME280;48624;49.812;8.562;2022-07-12T03:36:27;101341.13;;;14.31;84.94
62333;BME280;48624;49.812;8.562;2022-07-12T03:38:52;101336.53;;;14.33;84.54
62333;BME280;48624;49.812;8.562;2022-07-12T03:41:18;101336.84;;;14.28;84.82
62333;BME280;48624;49.812;8.562;2022-07-12T03:43:43;101332.16;;;14.32;84.66
62333;BME280;48624;49.812;8.562;2022-07-12T03:46:08;101334.81;;;14.32;83.83
62333;BME280;48624;49.812;8.562;2022-07-12T03:48:34;101341.34;;;14.28;84.22
62333;BME280;48624;49.812;8.562;2022-07-12T03:50:59;101339.41;;;14.17;84.97
62333;BME280;48624;49.812;8.562;2022-07-12T03:53:24;101342.91;;;14.18;85.22
62333;BME280;48624;49.812;8.562;2022-07-12T03:55:50;101351.34;;;14.11;85.20
62333;BME280;48624;49.812;8.562;2022-07-12T03:58:15;101338.22;;;14.08;85.38
62333;BME280;48624;49.812;8.562;2022-07-12T04:00:40;101341.66;;;14.10;85.18
62333;BME280;48624;49.812;8.562;2022-07-12T04:03:09;101340.03;;;14.08;85.35
62333;BME280;48624;49.812;8.562;2022-07-12T04:05:36;101338.03;;;14.24;84.31
62333;BME280;48624;49.812;8.562;2022-07-12T04:08:01;101347.31;;;14.19;84.96
62333;BME280;48624;49.812;8.562;2022-07-12T04:10:27;101343.22;;;14.13;85.73
62333;BME280;48624;49.812;8.562;2022-07-12T04:12:53;101341.97;;;14.19;85.52
62333;BME280;48624;49.812;8.562;2022-07-12T04:15:18;101342.59;;;14.22;85.11
62333;BME280;48624;49.812;8.562;2022-07-12T04:17:43;101345.69;;;14.16;86.05
62333;BME280;48624;49.812;8.562;2022-07-12T04:20:10;101346.22;;;14.21;85.30
62333;BME280;48624;49.812;8.562;2022-07-12T04:22:35;101344.59;;;13.80;88.50
62333;BME280;48624;49.812;8.562;2022-07-12T04:25:01;101343.63;;;13.81;88.85
62333;BME280;48624;49.812;8.562;2022-07-12T04:27:30;101343.13;;;14.14;86.36
62333;BME280;48624;49.812;8.562;2022-07-12T04:30:00;101345.69;;;14.16;86.72
62333;BME280;48624;49.812;8.562;2022-07-12T04:32:25;101349.84;;;14.07;88.17
62333;BME280;48624;49.812;8.562;2022-07-12T04:34:51;101350.50;;;14.24;87.12
62333;BME280;48624;49.812;8.562;2022-07-12T04:37:18;101348.06;;;14.21;87.74
62333;BME280;48624;49.812;8.562;2022-07-12T04:39:43;101350.25;;;14.66;86.01
62333;BME280;48624;49.812;8.562;2022-07-12T04:42:08;101352.44;;;14.98;84.55
62333;BME280;48624;49.812;8.562;2022-07-12T04:44:34;101357.25;;;15.06;83.92
62333;BME280;48624;49.812;8.562;2022-07-12T04:46:59;101354.25;;;15.10;83.41
62333;BME280;48624;49.812;8.562;2022-07-12T04:49:24;101363.72;;;15.15;82.76
62333;BME280;48624;49.812;8.562;2022-07-12T04:51:50;101355.75;;;15.02;83.90
62333;BME280;48624;49.812;8.562;2022-07-12T04:54:15;101356.91;;;15.10;83.54
62333;BME280;48624;49.812;8.562;2022-07-12T04:56:40;101361.38;;;15.10;83.61
62333;BME280;48624;49.812;8.562;2022-07-12T04:59:06;101353.91;;;15.15;83.54
62333;BME280;48624;49.812;8.562;2022-07-12T05:01:31;101365.84;;;15.22;83.15
62333;BME280;48624;49.812;8.562;2022-07-12T05:03:58;101362.72;;;15.29;83.13
62333;BME280;48624;49.812;8.562;2022-07-12T05:06:24;101373.69;;;15.37;82.76
62333;BME280;48624;49.812;8.562;2022-07-12T05:08:49;101368.00;;;15.42;82.90
62333;BME280;48624;49.812;8.562;2022-07-12T05:11:15;101377.28;;;15.49;82.62
62333;BME280;48624;49.812;8.562;2022-07-12T05:13:40;101379.03;;;15.61;82.39
62333;BME280;48624;49.812;8.562;2022-07-12T05:16:07;101385.00;;;15.65;82.40
62333;BME280;48624;49.812;8.562;2022-07-12T05:18:33;101387.69;;;15.76;82.26
62333;BME280;48624;49.812;8.562;2022-07-12T05:20:59;101393.06;;;15.76;82.57
62333;BME280;48624;49.812;8.562;2022-07-12T05:23:24;101386.19;;;15.85;82.47
62333;BME280;48624;49.812;8.562;2022-07-12T05:25:49;101385.50;;;15.94;81.96
62333;BME280;48624;49.812;8.562;2022-07-12T05:28:15;101391.72;;;16.06;81.84
62333;BME280;48624;49.812;8.562;2022-07-12T05:30:42;101386.63;;;16.15;81.84
62333;BME280;48624;49.812;8.562;2022-07-12T05:33:07;101392.59;;;16.18;81.74
62333;BME280;48624;49.812;8.562;2022-07-12T05:35:32;101393.22;;;16.22;81.72
62333;BME280;48624;49.812;8.562;2022-07-12T05:37:58;101405.91;;;16.43;80.83
62333;BME280;48624;49.812;8.562;2022-07-12T05:40:23;101390.56;;;16.45;81.16
62333;BME280;48624;49.812;8.562;2022-07-12T05:42:49;101406.25;;;16.49;81.34
62333;BME280;48624;49.812;8.562;2022-07-12T05:45:14;101399.00;;;16.52;81.89
62333;BME280;48624;49.812;8.562;2022-07-12T05:47:39;101406.16;;;16.74;80.81
62333;BME280;48624;49.812;8.562;2022-07-12T05:50:05;101409.69;;;16.86;80.37
62333;BME280;48624;49.812;8.562;2022-07-12T05:52:30;101408.75;;;16.98;80.38
62333;BME280;48624;49.812;8.562;2022-07-12T05:55:14;101409.94;;;17.05;80.38
62333;BME280;48624;49.812;8.562;2022-07-12T05:57:40;101411.53;;;17.19;79.93
62333;BME280;48624;49.812;8.562;2022-07-12T06:00:06;101417.47;;;17.23;79.91
62333;BME280;48624;49.812;8.562;2022-07-12T06:02:31;101416.94;;;17.52;78.66
62333;BME280;48624;49.812;8.562;2022-07-12T06:04:57;101413.41;;;17.52;78.88
62333;BME280;48624;49.812;8.562;2022-07-12T06:07:22;101423.25;;;17.51;79.15
62333;BME280;48624;49.812;8.562;2022-07-12T06:09:47;101420.91;;;17.69;78.61
62333;BME280;48624;49.812;8.562;2022-07-12T06:12:12;101411.72;;;17.83;78.18
62333;BME280;48624;49.812;8.562;2022-07-12T06:14:38;101428.13;;;17.90;78.21
62333;BME280;48624;49.812;8.562;2022-07-12T06:17:03;101426.38;;;18.00;78.22
62333;BME280;48624;49.812;8.562;2022-07-12T06:19:29;101419.81;;;18.26;77.04
62333;BME280;48624;49.812;8.562;2022-07-12T06:21:55;101427.69;;;18.49;75.48
62333;BME280;48624;49.812;8.562;2022-07-12T06:24:20;101436.22;;;18.54;76.04
62333;BME280;48624;49.812;8.562;2022-07-12T06:26:45;101430.41;;;18.80;75.20
62333;BME280;48624;49.812;8.562;2022-07-12T06:29:10;101433.06;;;19.01;73.99
62333;BME280;48624;49.812;8.562;2022-07-12T06:31:36;101432.81;;;18.83;73.75
62333;BME280;48624;49.812;8.562;2022-07-12T06:34:01;101436.50;;;18.82;73.92
62333;BME280;48624;49.812;8.562;2022-07-12T06:36:26;101437.31;;;19.04;73.09
62333;BME280;48624;49.812;8.562;2022-07-12T06:38:52;101430.75;;;19.27;72.79
62333;BME280;48624;49.812;8.562;2022-07-12T06:41:17;101443.03;;;19.20;73.04
62333;BME280;48624;49.812;8.562;2022-07-12T06:43:42;101438.00;;;19.47;71.62
62333;BME280;48624;49.812;8.562;2022-07-12T06:46:08;101436.75;;;19.61;71.63
62333;BME280;48624;49.812;8.562;2022-07-12T06:48:33;101442.59;;;19.95;69.05
62333;BME280;48624;49.812;8.562;2022-07-12T06:50:58;101445.28;;;20.05;68.25
62333;BME280;48624;49.812;8.562;2022-07-12T06:53:24;101446.53;;;19.91;68.88
62333;BME280;48624;49.812;8.562;2022-07-12T06:55:49;101446.84;;;19.98;67.85
62333;BME280;48624;49.812;8.562;2022-07-12T06:58:15;101445.09;;;20.46;66.78
62333;BME280;48624;49.812;8.562;2022-07-12T07:00:41;101445.69;;;20.30;67.41
62333;BME280;48624;49.812;8.562;2022-07-12T07:03:07;101451.91;;;20.31;67.82
62333;BME280;48624;49.812;8.562;2022-07-12T07:05:33;101444.47;;;20.62;67.14
62333;BME280;48624;49.812;8.562;2022-07-12T07:07:59;101453.22;;;20.84;66.03
62333;BME280;48624;49.812;8.562;2022-07-12T07:10:24;101446.25;;;20.91;64.67
62333;BME280;48624;49.812;8.562;2022-07-12T07:12:49;101452.66;;;20.71;65.67
62333;BME280;48624;49.812;8.562;2022-07-12T07:15:15;101451.75;;;20.90;65.44
62333;BME280;48624;49.812;8.562;2022-07-12T07:17:42;101444.03;;;21.05;64.55
62333;BME280;48624;49.812;8.562;2022-07-12T07:20:11;101447.47;;;21.07;63.62
62333;BME280;48624;49.812;8.562;2022-07-12T07:22:37;101451.56;;;21.29;63.86
62333;BME280;48624;49.812;8.562;2022-07-12T07:25:04;101441.34;;;21.79;62.93
62333;BME280;48624;49.812;8.562;2022-07-12T07:27:29;101445.50;;;21.92;61.51
62333;BME280;48624;49.812;8.562;2022-07-12T07:29:54;101447.69;;;22.14;60.51
62333;BME280;48624;49.812;8.562;2022-07-12T07:32:38;101447.66;;;22.06;60.11
62333;BME280;48624;49.812;8.562;2022-07-12T07:35:04;101446.41;;;22.00;59.65
62333;BME280;48624;49.812;8.562;2022-07-12T07:37:31;101442.31;;;22.14;59.37
62333;BME280;48624;49.812;8.562;2022-07-12T07:39:57;101446.75;;;22.24;59.83
62333;BME280;48624;49.812;8.562;2022-07-12T07:42:22;101446.41;;;22.18;59.07
62333;BME280;48624;49.812;8.562;2022-07-12T07:44:48;101431.22;;;22.44;57.86
62333;BME280;48624;49.812;8.562;2022-07-12T07:47:13;101437.84;;;22.05;59.15
62333;BME280;48624;49.812;8.562;2022-07-12T07:49:39;101441.19;;;21.99;59.35
62333;BME280;48624;49.812;8.562;2022-07-12T07:52:04;101446.94;;;22.04;58.63
62333;BME280;48624;49.812;8.562;2022-07-12T07:54:29;101446.41;;;22.00;58.33
62333;BME280;48624;49.812;8.562;2022-07-12T07:56:55;101444.88;;;21.80;59.40
62333;BME280;48624;49.812;8.562;2022-07-12T07:59:20;101450.75;;;21.93;59.14
62333;BME280;48624;49.812;8.562;2022-07-12T08:01:45;101445.06;;;21.78;59.43
62333;BME280;48624;49.812;8.562;2022-07-12T08:04:12;101452.44;;;21.76;59.49
62333;BME280;48624;49.812;8.562;2022-07-12T08:06:38;101454.44;;;21.74;59.76
62333;BME280;48624;49.812;8.562;2022-07-12T08:09:04;101450.28;;;21.52;59.84
62333;BME280;48624;49.812;8.562;2022-07-12T08:11:30;101447.88;;;21.58;59.58
62333;BME280;48624;49.812;8.562;2022-07-12T08:13:55;101451.13;;;21.80;59.41
62333;BME280;48624;49.812;8.562;2022-07-12T08:16:20;101447.38;;;21.91;58.57
62333;BME280;48624;49.812;8.562;2022-07-12T08:18:46;101441.34;;;22.24;56.82
62333;BME280;48624;49.812;8.562;2022-07-12T08:21:11;101442.75;;;22.28;57.60
62333;BME280;48624;49.812;8.562;2022-07-12T08:23:36;101441.53;;;22.49;56.01
62333;BME280;48624;49.812;8.562;2022-07-12T08:26:03;101442.16;;;22.61;56.22
62333;BME280;48624;49.812;8.562;2022-07-12T08:28:28;101441.28;;;22.60;55.17
62333;BME280;48624;49.812;8.562;2022-07-12T08:30:53;101436.91;;;22.94;54.75
62333;BME280;48624;49.812;8.562;2022-07-12T08:33:19;101440.13;;;22.97;54.52
62333;BME280;48624;49.812;8.562;2022-07-12T08:35:44;101435.78;;;23.05;54.67
62333;BME280;48624;49.812;8.562;2022-07-12T08:38:09;101431.13;;;22.80;55.66
62333;BME280;48624;49.812;8.562;2022-07-12T08:40:35;101431.63;;;22.49;55.97
62333;BME280;48624;49.812;8.562;2022-07-12T08:43:01;101430.59;;;23.20;54.13
62333;BME280;48624;49.812;8.562;2022-07-12T08:45:27;101425.41;;;22.92;52.74
62333;BME280;48624;49.812;8.562;2022-07-12T08:47:52;101419.94;;;22.75;54.62
62333;BME280;48624;49.812;8.562;2022-07-12T08:50:19;101425.13;;;23.03;53.75
62333;BME280;48624;49.812;8.562;2022-07-12T08:55:24;101430.06;;;23.67;51.24
62333;BME280;48624;49.812;8.562;2022-07-12T08:57:51;101434.91;;;24.63;48.28
62333;BME280;48624;49.812;8.562;2022-07-12T09:00:17;101442.25;;;23.96;48.93
62333;BME280;48624;49.812;8.562;2022-07-12T09:02:54;101439.13;;;24.66;47.33
62333;BME280;48624;49.812;8.562;2022-07-12T09:05:27;101434.25;;;25.10;46.39
62333;BME280;48624;49.812;8.562;2022-07-12T09:08:08;101439.56;;;24.94;47.52
62333;BME280;48624;49.812;8.562;2022-07-12T09:13:15;101447.03;;;24.92;48.83
62333;BME280;48624;49.812;8.562;2022-07-12T09:15:40;101444.03;;;24.79;49.32
62333;BME280;48624;49.812;8.562;2022-07-12T09:18:06;101435.72;;;25.20;46.77
62333;BME280;48624;49.812;8.562;2022-07-12T09:20:39;101433.06;;;25.44;46.89
62333;BME280;48624;49.812;8.562;2022-07-12T09:23:10;101428.28;;;25.46;46.75
62333;BME280;48624;49.812;8.562;2022-07-12T09:25:37;101427.47;;;25.69;45.15
62333;BME280;48624;49.812;8.562;2022-07-12T09:28:04;101421.31;;;25.20;46.32
62333;BME280;48624;49.812;8.562;2022-07-12T09:30:30;101422.59;;;25.09;46.25
62333;BME280;48624;49.812;8.562;2022-07-12T09:33:01;101420.91;;;25.63;44.22
62333;BME280;48624;49.812;8.562;2022-07-12T09:38:51;101411.38;;;25.44;45.00
62333;BME280;48624;49.812;8.562;2022-07-12T09:41:25;101412.13;;;25.29;45.89
62333;BME280;48624;49.812;8.562;2022-07-12T09:43:52;101404.19;;;25.74;44.14
62333;BME280;48624;49.812;8.562;2022-07-12T09:46:17;101406.66;;;25.84;43.27
62333;BME280;48624;49.812;8.562;2022-07-12T09:48:44;101407.16;;;26.26;42.13
62333;BME280;48624;49.812;8.562;2022-07-12T09:51:10;101413.91;;;25.69;43.05
62333;BME280;48624;49.812;8.562;2022-07-12T09:53:43;101410.41;;;25.83;42.24
62333;BME280;48624;49.812;8.562;2022-07-12T09:56:11;101410.94;;;26.02;42.21
62333;BME280;48624;49.812;8.562;2022-07-12T09:59:00;101420.44;;;26.21;42.99
62333;BME280;48624;49.812;8.562;2022-07-12T10:01:25;101428.16;;;25.07;44.65
62333;BME280;48624;49.812;8.562;2022-07-12T10:03:51;101431.97;;;25.85;42.63
62333;BME280;48624;49.812;8.562;2022-07-12T10:06:35;101427.50;;;25.05;44.79
62333;BME280;48624;49.812;8.562;2022-07-12T10:09:01;101429.16;;;25.15;45.24
62333;BME280;48624;49.812;8.562;2022-07-12T10:11:27;101416.56;;;25.22;44.87
62333;BME280;48624;49.812;8.562;2022-07-12T10:13:53;101422.88;;;25.46;43.97
62333;BME280;48624;49.812;8.562;2022-07-12T10:16:25;101424.22;;;25.50;43.35
62333;BME280;48624;49.812;8.562;2022-07-12T10:19:25;101408.38;;;25.30;43.74
62333;BME280;48624;49.812;8.562;2022-07-12T10:21:53;101412.56;;;25.41;43.43
62333;BME280;48624;49.812;8.562;2022-07-12T10:29:45;101411.88;;;26.33;41.84
62333;BME280;48624;49.812;8.562;2022-07-12T10:32:25;101409.03;;;26.41;42.37
62333;BME280;48624;49.812;8.562;2022-07-12T10:35:07;101400.47;;;27.19;39.46
62333;BME280;48624;49.812;8.562;2022-07-12T10:37:36;101406.59;;;27.43;39.24
62333;BME280;48624;49.812;8.562;2022-07-12T10:40:16;101404.44;;;27.82;37.23
62333;BME280;48624;49.812;8.562;2022-07-12T10:45:38;101398.09;;;27.31;38.55
62333;BME280;48624;49.812;8.562;2022-07-12T10:57:57;101399.69;;;27.25;39.12
62333;BME280;48624;49.812;8.562;2022-07-12T11:08:08;101402.88;;;27.29;37.92
62333;BME280;48624;49.812;8.562;2022-07-12T11:14:37;101405.88;;;28.28;36.44
62333;BME280;48624;49.812;8.562;2022-07-12T11:17:05;101405.75;;;27.86;37.83
62333;BME280;48624;49.812;8.562;2022-07-12T11:19:31;101394.53;;;27.74;38.53
62333;BME280;48624;49.812;8.562;2022-07-12T11:21:57;101389.72;;;28.27;36.52
62333;BME280;48624;49.812;8.562;2022-07-12T11:24:31;101388.72;;;28.06;36.52
62333;BME280;48624;49.812;8.562;2022-07-12T11:26:57;101387.03;;;28.05;35.24
62333;BME280;48624;49.812;8.562;2022-07-12T11:29:24;101385.63;;;28.16;35.84
62333;BME280;48624;49.812;8.562;2022-07-12T11:32:00;101379.13;;;28.80;34.68
62333;BME280;48624;49.812;8.562;2022-07-12T11:34:26;101373.00;;;29.41;33.35
62333;BME280;48624;49.812;8.562;2022-07-12T11:36:59;101378.06;;;28.82;33.89
62333;BME280;48624;49.812;8.562;2022-07-12T11:39:43;101368.81;;;29.99;31.33
62333;BME280;48624;49.812;8.562;2022-07-12T11:42:09;101369.84;;;29.24;33.73
62333;BME280;48624;49.812;8.562;2022-07-12T11:47:07;101373.63;;;29.43;33.00
62333;BME280;48624;49.812;8.562;2022-07-12T11:49:33;101366.38;;;28.46;35.48
62333;BME280;48624;49.812;8.562;2022-07-12T11:51:58;101374.31;;;28.83;33.53
62333;BME280;48624;49.812;8.562;2022-07-12T11:54:26;101355.94;;;28.98;33.73
62333;BME280;48624;49.812;8.562;2022-07-12T11:57:12;101366.34;;;28.10;34.68
62333;BME280;48624;49.812;8.562;2022-07-12T11:59:38;101351.56;;;29.17;32.72
62333;BME280;48624;49.812;8.562;2022-07-12T12:02:10;101351.13;;;29.20;31.98
62333;BME280;48624;49.812;8.562;2022-07-12T12:04:52;101348.25;;;29.83;31.53
62333;BME280;48624;49.812;8.562;2022-07-12T12:07:20;101345.28;;;30.11;31.36
62333;BME280;48624;49.812;8.562;2022-07-12T12:12:38;101348.91;;;29.65;31.03
62333;BME280;48624;49.812;8.562;2022-07-12T12:15:05;101336.50;;;29.62;31.28
62333;BME280;48624;49.812;8.562;2022-07-12T12:17:32;101339.66;;;29.79;31.85
62333;BME280;48624;49.812;8.562;2022-07-12T12:20:07;101340.91;;;29.70;31.83
62333;BME280;48624;49.812;8.562;2022-07-12T12:22:33;101339.13;;;30.36;31.11
62333;BME280;48624;49.812;8.562;2022-07-12T12:25:00;101338.16;;;30.10;30.65
62333;BME280;48624;49.812;8.562;2022-07-12T12:27:26;101332.63;;;30.37;30.24
62333;BME280;48624;49.812;8.562;2022-07-12T12:29:51;101327.88;;;29.92;31.70
62333;BME280;48624;49.812;8.562;2022-07-12T12:32:19;101326.28;;;30.43;30.19
62333;BME280;48624;49.812;8.562;2022-07-12T12:35:09;101321.41;;;30.66;28.54
62333;BME280;48624;49.812;8.562;2022-07-12T12:37:35;101318.22;;;31.40;27.11
62333;BME280;48624;49.812;8.562;2022-07-12T12:40:02;101316.31;;;31.08;27.88
62333;BME280;48624;49.812;8.562;2022-07-12T12:42:28;101314.78;;;30.80;28.97
62333;BME280;48624;49.812;8.562;2022-07-12T12:44:55;101316.09;;;30.12;29.39
62333;BME280;48624;49.812;8.562;2022-07-12T12:47:21;101309.81;;;30.57;29.79
62333;BME280;48624;49.812;8.562;2022-07-12T12:50:01;101305.44;;;30.49;28.80
62333;BME280;48624;49.812;8.562;2022-07-12T12:52:29;101302.66;;;30.69;28.46
62333;BME280;48624;49.812;8.562;2022-07-12T12:54:57;101308.56;;;29.94;29.46
62333;BME280;48624;49.812;8.562;2022-07-12T12:57:23;101308.19;;;30.49;29.40
62333;BME280;48624;49.812;8.562;2022-07-12T12:59:50;101300.19;;;30.93;28.08
62333;BME280;48624;49.812;8.562;2022-07-12T13:02:17;101309.66;;;30.97;28.56
62333;BME280;48624;49.812;8.562;2022-07-12T13:04:44;101302.06;;;30.99;27.90
62333;BME280;48624;49.812;8.562;2022-07-12T13:07:09;101302.56;;;31.47;26.76
62333;BME280;48624;49.812;8.562;2022-07-12T13:09:34;101303.75;;;32.02;26.34
62333;BME280;48624;49.812;8.562;2022-07-12T13:12:00;101305.47;;;31.96;25.66
62333;BME280;48624;49.812;8.562;2022-07-12T13:14:25;101299.41;;;32.32;25.48
62333;BME280;48624;49.812;8.562;2022-07-12T13:16:52;101299.88;;;32.29;25.51
62333;BME280;48624;49.812;8.562;2022-07-12T13:19:18;101286.28;;;33.14;23.91
62333;BME280;48624;49.812;8.562;2022-07-12T13:21:44;101291.22;;;33.95;23.60
62333;BME280;48624;49.812;8.562;2022-07-12T13:24:09;101297.00;;;33.82;24.66
62333;BME280;48624;49.812;8.562;2022-07-12T13:26:35;101283.69;;;34.55;22.73
62333;BME280;48624;49.812;8.562;2022-07-12T13:29:00;101288.81;;;33.15;25.64
62333;BME280;48624;49.812;8.562;2022-07-12T13:31:26;101299.50;;;32.74;26.19
62333;BME280;48624;49.812;8.562;2022-07-12T13:33:52;101299.47;;;32.25;25.89